Terminal Aerodrome Forecast
Issued by NWS

Current Version | Previous Version | Text Only | Print | Product List | Glossary On
Versions: 1 2 3 4 5 6 7 8 9 10 11 12
000
FTUS46 KMTR 021700
TAFSJC
TAF
KSJC 021732Z 0218/0318 VRB04KT P6SM SKC
     FM022100 30011KT P6SM SKC
     FM030400 31006KT P6SM SKC
     FM031400 15008KT P6SM SKC
     FM031700 30005KT P6SM SKC=

USA.gov is the U.S. government's official web portal to all federal, state and local government web resources and services.